Time,TemperatureF,DewpointF,PressureIn,WindDirection,WindDirectionDegrees,WindSpeedMPH,WindSpeedGustMPH,Humidity,HourlyPrecipIn,Conditions,Clouds,dailyrainin,SoftwareType,DateUTC
2013-03-23 00:00:00,18.0,-13.0,-100.00,SW,230,15.0,29.0,24,-99.99,,,-99.99,,2013-03-23 06:00:00,
2013-03-23 00:42:00,18.0,-13.0,-100.00,SW,230,15.0,29.0,24,-99.99,,,-99.99,,2013-03-23 06:42:00,
2013-03-23 00:52:00,18.0,-13.0,-100.00,SW,230,15.0,29.0,24,-99.99,,,-99.99,,2013-03-23 06:52:00,
2013-03-23 01:00:00,17.0,-12.0,-100.00,SW,228,16.0,33.0,26,-99.99,,,-99.99,,2013-03-23 07:00:00,
2013-03-23 01:42:00,17.0,-12.0,-100.00,SW,228,16.0,33.0,26,-99.99,,,-99.99,,2013-03-23 07:42:00,
2013-03-23 01:52:00,17.0,-12.0,-100.00,SW,228,16.0,33.0,26,-99.99,,,-99.99,,2013-03-23 07:52:00,
2013-03-23 02:00:00,16.0,-10.0,-100.00,SW,233,17.0,37.0,30,-99.99,,,-99.99,,2013-03-23 08:00:00,
2013-03-23 02:42:00,16.0,-10.0,-100.00,SW,233,17.0,37.0,30,-99.99,,,-99.99,,2013-03-23 08:42:00,
2013-03-23 02:52:00,16.0,-10.0,-100.00,SW,233,17.0,37.0,30,-99.99,,,-99.99,,2013-03-23 08:52:00,
2013-03-23 03:00:00,14.0,-10.0,-100.00,SW,232,18.0,44.0,32,-99.99,,,-99.99,,2013-03-23 09:00:00,
2013-03-23 03:43:00,14.0,-10.0,-100.00,SW,232,18.0,44.0,32,-99.99,,,-99.99,,2013-03-23 09:43:00,
2013-03-23 03:53:00,14.0,-10.0,-100.00,SW,232,18.0,44.0,32,-99.99,,,-99.99,,2013-03-23 09:53:00,
2013-03-23 04:00:00,12.0,-8.0,-100.00,SW,229,18.0,36.0,40,-99.99,,,-99.99,,2013-03-23 10:00:00,
2013-03-23 04:43:00,12.0,-8.0,-100.00,SW,229,18.0,36.0,40,-99.99,,,-99.99,,2013-03-23 10:43:00,
2013-03-23 04:52:00,12.0,-8.0,-100.00,SW,229,18.0,36.0,40,-99.99,,,-99.99,,2013-03-23 10:52:00,
2013-03-23 05:00:00,10.0,-5.0,-100.00,SW,232,19.0,35.0,49,-99.99,,,-99.99,,2013-03-23 11:00:00,
2013-03-23 05:42:00,10.0,-5.0,-100.00,SW,232,19.0,35.0,49,-99.99,,,-99.99,,2013-03-23 11:42:00,
2013-03-23 05:52:00,10.0,-5.0,-100.00,SW,232,19.0,35.0,49,-99.99,,,-99.99,,2013-03-23 11:52:00,
2013-03-23 06:00:00,8.0,-3.0,-100.00,SW,226,19.0,34.0,59,-99.99,,,-99.99,,2013-03-23 12:00:00,
2013-03-23 06:43:00,8.0,-3.0,-100.00,SW,226,19.0,34.0,59,-99.99,,,-99.99,,2013-03-23 12:43:00,
2013-03-23 06:53:00,8.0,-3.0,-100.00,SW,226,19.0,34.0,59,-99.99,,,-99.99,,2013-03-23 12:53:00,
2013-03-23 07:00:00,5.0,-2.0,-100.00,SW,231,19.0,37.0,71,-99.99,,,-99.99,,2013-03-23 13:00:00,
2013-03-23 07:43:00,5.0,-2.0,-100.00,SW,231,19.0,37.0,71,-99.99,,,-99.99,,2013-03-23 13:43:00,
2013-03-23 07:53:00,5.0,-2.0,-100.00,SW,231,19.0,37.0,71,-99.99,,,-99.99,,2013-03-23 13:53:00,
2013-03-23 08:00:00,3.0,-1.0,-100.00,SW,229,16.0,33.0,83,-99.99,,,-99.99,,2013-03-23 14:00:00,
2013-03-23 08:43:00,3.0,-1.0,-100.00,SW,229,16.0,33.0,83,-99.99,,,-99.99,,2013-03-23 14:43:00,
2013-03-23 08:53:00,3.0,-1.0,-100.00,SW,229,16.0,33.0,83,-99.99,,,-99.99,,2013-03-23 14:53:00,
2013-03-23 09:00:00,2.0,-5.0,-100.00,SW,224,21.0,44.0,74,-99.99,,,-99.99,,2013-03-23 15:00:00,
2013-03-23 09:44:00,2.0,-5.0,-100.00,SW,224,21.0,44.0,74,-99.99,,,-99.99,,2013-03-23 15:44:00,
2013-03-23 09:53:00,2.0,-5.0,-100.00,SW,224,21.0,44.0,74,-99.99,,,-99.99,,2013-03-23 15:53:00,
2013-03-23 10:00:00,1.0,-8.0,-100.00,SW,225,18.0,38.0,64,-99.99,,,-99.99,,2013-03-23 16:00:00,
2013-03-23 10:43:00,1.0,-8.0,-100.00,SW,225,18.0,38.0,64,-99.99,,,-99.99,,2013-03-23 16:43:00,
2013-03-23 10:53:00,1.0,-8.0,-100.00,SW,225,18.0,38.0,64,-99.99,,,-99.99,,2013-03-23 16:53:00,
2013-03-23 11:00:00,1.0,-17.0,-100.00,SSW,212,19.0,37.0,40,-99.99,,,-99.99,,2013-03-23 17:00:00,
2013-03-23 11:43:00,1.0,-17.0,-100.00,SSW,212,19.0,37.0,40,-99.99,,,-99.99,,2013-03-23 17:43:00,
2013-03-23 11:53:00,1.0,-17.0,-100.00,SSW,212,19.0,37.0,40,-99.99,,,-99.99,,2013-03-23 17:53:00,
2013-03-23 12:00:00,1.0,-16.0,-100.00,SW,233,13.0,37.0,44,-99.99,,,-99.99,,2013-03-23 18:00:00,
2013-03-23 12:43:00,1.0,-16.0,-100.00,SW,233,13.0,37.0,44,-99.99,,,-99.99,,2013-03-23 18:43:00,
2013-03-23 12:53:00,1.0,-16.0,-100.00,SW,233,13.0,37.0,44,-99.99,,,-99.99,,2013-03-23 18:53:00,
2013-03-23 13:00:00,0.0,-8.0,-100.00,NNW,343,8.0,18.0,66,-99.99,,,-99.99,,2013-03-23 19:00:00,
2013-03-23 13:43:00,0.0,-8.0,-100.00,NNW,343,8.0,18.0,66,-99.99,,,-99.99,,2013-03-23 19:43:00,
2013-03-23 13:53:00,0.0,-8.0,-100.00,NNW,343,8.0,18.0,66,-99.99,,,-99.99,,2013-03-23 19:53:00,
2013-03-23 14:00:00,2.0,-17.0,-100.00,NNW,348,12.0,31.0,38,-99.99,,,-99.99,,2013-03-23 20:00:00,
2013-03-23 14:43:00,2.0,-17.0,-100.00,NNW,348,12.0,31.0,38,-99.99,,,-99.99,,2013-03-23 20:43:00,
2013-03-23 14:53:00,2.0,-17.0,-100.00,NNW,348,12.0,31.0,38,-99.99,,,-99.99,,2013-03-23 20:53:00,
2013-03-23 15:00:00,4.0,-18.0,-100.00,NNW,327,12.0,29.0,34,-99.99,,,-99.99,,2013-03-23 21:00:00,
2013-03-23 15:43:00,4.0,-18.0,-100.00,NNW,327,12.0,29.0,34,-99.99,,,-99.99,,2013-03-23 21:43:00,
2013-03-23 15:54:00,4.0,-18.0,-100.00,NNW,327,12.0,29.0,34,-99.99,,,-99.99,,2013-03-23 21:54:00,
2013-03-23 16:00:00,3.0,-12.0,-100.00,NNW,341,14.0,28.0,50,-99.99,,,-99.99,,2013-03-23 22:00:00,
2013-03-23 16:43:00,3.0,-12.0,-100.00,NNW,341,14.0,28.0,50,-99.99,,,-99.99,,2013-03-23 22:43:00,
2013-03-23 16:53:00,3.0,-12.0,-100.00,NNW,341,14.0,28.0,50,-99.99,,,-99.99,,2013-03-23 22:53:00,
2013-03-23 17:00:00,2.0,-12.0,-100.00,NNW,333,13.0,30.0,50,-99.99,,,-99.99,,2013-03-23 23:00:00,
2013-03-23 17:43:00,2.0,-12.0,-100.00,NNW,333,13.0,30.0,50,-99.99,,,-99.99,,2013-03-23 23:43:00,
2013-03-23 17:52:00,2.0,-12.0,-100.00,NNW,333,13.0,30.0,50,-99.99,,,-99.99,,2013-03-23 23:52:00,
2013-03-23 18:00:00,2.0,-15.0,-100.00,NNW,348,11.0,23.0,44,-99.99,,,-99.99,,2013-03-24 00:00:00,
2013-03-23 18:42:00,2.0,-15.0,-100.00,NNW,348,11.0,23.0,44,-99.99,,,-99.99,,2013-03-24 00:42:00,
2013-03-23 18:52:00,2.0,-15.0,-100.00,NNW,348,11.0,23.0,44,-99.99,,,-99.99,,2013-03-24 00:52:00,
2013-03-23 19:00:00,2.0,-17.0,-100.00,NW,326,10.0,22.0,39,-99.99,,,-99.99,,2013-03-24 01:00:00,
2013-03-23 19:43:00,2.0,-17.0,-100.00,NW,326,10.0,22.0,39,-99.99,,,-99.99,,2013-03-24 01:43:00,
2013-03-23 19:53:00,2.0,-17.0,-100.00,NW,326,10.0,22.0,39,-99.99,,,-99.99,,2013-03-24 01:53:00,
2013-03-23 20:00:00,0.0,-14.0,-100.00,NW,304,9.0,18.0,48,-99.99,,,-99.99,,2013-03-24 02:00:00,
2013-03-23 20:43:00,0.0,-14.0,-100.00,NW,304,9.0,18.0,48,-99.99,,,-99.99,,2013-03-24 02:43:00,
2013-03-23 20:52:00,0.0,-14.0,-100.00,NW,304,9.0,18.0,48,-99.99,,,-99.99,,2013-03-24 02:52:00,
2013-03-23 21:00:00,-1.0,-15.0,-100.00,NW,319,8.0,17.0,48,-99.99,,,-99.99,,2013-03-24 03:00:00,
2013-03-23 21:43:00,-1.0,-15.0,-100.00,NW,319,8.0,17.0,48,-99.99,,,-99.99,,2013-03-24 03:43:00,
2013-03-23 21:53:00,-1.0,-15.0,-100.00,NW,319,8.0,17.0,48,-99.99,,,-99.99,,2013-03-24 03:53:00,
2013-03-23 22:00:00,-1.0,-15.0,-100.00,WNW,297,9.0,17.0,51,-99.99,,,-99.99,,2013-03-24 04:00:00,
2013-03-23 22:43:00,-1.0,-15.0,-100.00,WNW,297,9.0,17.0,51,-99.99,,,-99.99,,2013-03-24 04:43:00,
2013-03-23 22:53:00,-1.0,-15.0,-100.00,WNW,297,9.0,17.0,51,-99.99,,,-99.99,,2013-03-24 04:53:00,
2013-03-23 23:00:00,-1.0,-17.0,-100.00,West,267,7.0,14.0,46,-99.99,,,-99.99,,2013-03-24 05:00:00,
2013-03-23 23:43:00,-1.0,-17.0,-100.00,West,267,7.0,14.0,46,-99.99,,,-99.99,,2013-03-24 05:43:00,
2013-03-23 23:52:00,-1.0,-17.0,-100.00,West,267,7.0,14.0,46,-99.99,,,-99.99,,2013-03-24 05:52:00,